sensor_id;sensor_type;location;lat;lon;timestamp;pressure;altitude;pressure_sealevel;temperature;humidity
54439;BME280;40347;53.848;27.498;2023-01-27T00:01:05;1016.8;;;2.4;66.6
54439;BME280;40347;53.848;27.498;2023-01-27T00:06:16;1016.8;;;2.5;66.5
54439;BME280;40347;53.848;27.498;2023-01-27T00:11:04;1016.8;;;2.4;66.5
54439;BME280;40347;53.848;27.498;2023-01-27T00:16:24;1016.9;;;2.4;66.7
54439;BME280;40347;53.848;27.498;2023-01-27T00:21:04;1016.8;;;2.4;66.7
54439;BME280;40347;53.848;27.498;2023-01-27T00:26:38;1016.8;;;2.5;66.7
54439;BME280;40347;53.848;27.498;2023-01-27T00:31:05;1016.8;;;2.4;66.9
54439;BME280;40347;53.848;27.498;2023-01-27T00:36:22;1016.7;;;2.4;67.1
54439;BME280;40347;53.848;27.498;2023-01-27T00:41:12;1016.7;;;2.5;67.2
54439;BME280;40347;53.848;27.498;2023-01-27T00:46:28;1016.6;;;2.5;67.4
54439;BME280;40347;53.848;27.498;2023-01-27T00:51:04;1016.6;;;2.5;67.3
54439;BME280;40347;53.848;27.498;2023-01-27T00:56:05;1016.6;;;2.5;67.2
54439;BME280;40347;53.848;27.498;2023-01-27T01:01:33;1016.6;;;2.4;67.4
54439;BME280;40347;53.848;27.498;2023-01-27T01:06:15;1016.6;;;2.4;67.5
54439;BME280;40347;53.848;27.498;2023-01-27T01:11:05;1016.5;;;2.4;67.6
54439;BME280;40347;53.848;27.498;2023-01-27T01:16:15;1016.5;;;2.4;67.7
54439;BME280;40347;53.848;27.498;2023-01-27T01:21:05;1016.4;;;2.4;67.5
54439;BME280;40347;53.848;27.498;2023-01-27T01:26:24;1016.5;;;2.5;67.6
54439;BME280;40347;53.848;27.498;2023-01-27T01:31:05;1016.4;;;2.5;67.7
54439;BME280;40347;53.848;27.498;2023-01-27T01:36:38;1016.5;;;2.5;67.7
54439;BME280;40347;53.848;27.498;2023-01-27T01:41:16;1016.4;;;2.4;67.5
54439;BME280;40347;53.848;27.498;2023-01-27T01:46:04;1016.3;;;2.4;67.6
54439;BME280;40347;53.848;27.498;2023-01-27T01:51:14;1016.3;;;2.4;67.7
54439;BME280;40347;53.848;27.498;2023-01-27T01:56:06;1016.2;;;2.5;67.8
54439;BME280;40347;53.848;27.498;2023-01-27T02:01:05;1016.2;;;2.5;67.6
54439;BME280;40347;53.848;27.498;2023-01-27T02:06:26;1016.2;;;2.5;67.4
54439;BME280;40347;53.848;27.498;2023-01-27T02:11:24;1016.3;;;2.5;67.4
54439;BME280;40347;53.848;27.498;2023-01-27T02:16:26;1016.3;;;2.5;67.4
54439;BME280;40347;53.848;27.498;2023-01-27T02:21:16;1016.3;;;2.6;67.4
54439;BME280;40347;53.848;27.498;2023-01-27T02:26:05;1016.3;;;2.6;67.2
54439;BME280;40347;53.848;27.498;2023-01-27T02:31:04;1016.3;;;2.5;67.1
54439;BME280;40347;53.848;27.498;2023-01-27T02:36:13;1016.3;;;2.5;67.2
54439;BME280;40347;53.848;27.498;2023-01-27T02:41:17;1016.4;;;2.6;67.4
54439;BME280;40347;53.848;27.498;2023-01-27T02:46:14;1016.3;;;2.6;67.3
54439;BME280;40347;53.848;27.498;2023-01-27T02:51:04;1016.3;;;2.6;67.1
54439;BME280;40347;53.848;27.498;2023-01-27T02:56:14;1016.3;;;2.6;67
54439;BME280;40347;53.848;27.498;2023-01-27T03:01:14;1016.3;;;2.6;67.1
54439;BME280;40347;53.848;27.498;2023-01-27T03:06:24;1016.3;;;2.6;67.1
54439;BME280;40347;53.848;27.498;2023-01-27T03:11:04;1016.3;;;2.6;67
54439;BME280;40347;53.848;27.498;2023-01-27T03:16:24;1016.3;;;2.7;67.1
54439;BME280;40347;53.848;27.498;2023-01-27T03:21:26;1016.3;;;2.7;67.1
54439;BME280;40347;53.848;27.498;2023-01-27T03:26:05;1016.3;;;2.7;67
54439;BME280;40347;53.848;27.498;2023-01-27T03:31:06;1016.2;;;2.8;67
54439;BME280;40347;53.848;27.498;2023-01-27T03:36:26;1016.2;;;2.7;66.9
54439;BME280;40347;53.848;27.498;2023-01-27T03:41:24;1016.2;;;2.8;66.8
54439;BME280;40347;53.848;27.498;2023-01-27T03:46:04;1016.2;;;2.8;66.9
54439;BME280;40347;53.848;27.498;2023-01-27T03:51:12;1016.1;;;2.8;66.9
54439;BME280;40347;53.848;27.498;2023-01-27T03:56:05;1016.1;;;2.8;66.9
54439;BME280;40347;53.848;27.498;2023-01-27T04:01:05;1016.1;;;2.9;66.7
54439;BME280;40347;53.848;27.498;2023-01-27T04:06:27;1016.2;;;2.8;66.9
54439;BME280;40347;53.848;27.498;2023-01-27T04:11:14;1016.2;;;2.9;66.9
54439;BME280;40347;53.848;27.498;2023-01-27T04:16:04;1016.2;;;2.9;66.9
54439;BME280;40347;53.848;27.498;2023-01-27T04:21:28;1016.2;;;2.9;66.9
54439;BME280;40347;53.848;27.498;2023-01-27T04:26:04;1016.3;;;2.8;66.9
54439;BME280;40347;53.848;27.498;2023-01-27T04:31:16;1016.2;;;2.9;66.8
54439;BME280;40347;53.848;27.498;2023-01-27T04:36:04;1016.3;;;2.8;66.7
54439;BME280;40347;53.848;27.498;2023-01-27T04:41:04;1016.4;;;2.8;66.8
54439;BME280;40347;53.848;27.498;2023-01-27T04:46:14;1016.4;;;2.8;67
54439;BME280;40347;53.848;27.498;2023-01-27T04:51:14;1016.4;;;2.7;67.2
54439;BME280;40347;53.848;27.498;2023-01-27T04:56:17;1016.4;;;2.8;67.3
54439;BME280;40347;53.848;27.498;2023-01-27T05:01:24;1016.4;;;2.8;67.2
54439;BME280;40347;53.848;27.498;2023-01-27T05:06:25;1016.4;;;2.8;67.3
54439;BME280;40347;53.848;27.498;2023-01-27T05:11:26;1016.4;;;2.7;67.4
54439;BME280;40347;53.848;27.498;2023-01-27T05:16:17;1016.4;;;2.7;67.4
54439;BME280;40347;53.848;27.498;2023-01-27T05:21:05;1016.5;;;2.7;67.7
54439;BME280;40347;53.848;27.498;2023-01-27T05:26:17;1016.6;;;2.6;67.9
54439;BME280;40347;53.848;27.498;2023-01-27T05:31:06;1016.6;;;2.7;67.9
54439;BME280;40347;53.848;27.498;2023-01-27T05:36:17;1016.7;;;2.6;67.9
54439;BME280;40347;53.848;27.498;2023-01-27T05:41:24;1016.8;;;2.6;68
54439;BME280;40347;53.848;27.498;2023-01-27T05:46:17;1016.9;;;2.5;68.1
54439;BME280;40347;53.848;27.498;2023-01-27T05:51:25;1016.9;;;2.5;68.3
54439;BME280;40347;53.848;27.498;2023-01-27T05:56:15;1016.9;;;2.6;68.3
54439;BME280;40347;53.848;27.498;2023-01-27T06:01:18;1016.9;;;2.6;68.2
54439;BME280;40347;53.848;27.498;2023-01-27T06:06:05;1016.9;;;2.6;68.3
54439;BME280;40347;53.848;27.498;2023-01-27T06:11:05;1016.9;;;2.5;68.3
54439;BME280;40347;53.848;27.498;2023-01-27T06:16:13;1016.9;;;2.7;68.4
54439;BME280;40347;53.848;27.498;2023-01-27T06:21:28;1017;;;2.8;68.3
54439;BME280;40347;53.848;27.498;2023-01-27T06:26:17;1016.9;;;2.8;68.1
54439;BME280;40347;53.848;27.498;2023-01-27T06:31:05;1017;;;2.8;67.8
54439;BME280;40347;53.848;27.498;2023-01-27T06:36:22;1017;;;2.8;67.8
54439;BME280;40347;53.848;27.498;2023-01-27T06:41:17;1017.1;;;2.8;67.7
54439;BME280;40347;53.848;27.498;2023-01-27T06:46:04;1017.1;;;2.9;67.7
54439;BME280;40347;53.848;27.498;2023-01-27T06:51:14;1017;;;3.1;67.7
54439;BME280;40347;53.848;27.498;2023-01-27T06:56:16;1017.1;;;3.1;67.3
54439;BME280;40347;53.848;27.498;2023-01-27T07:01:24;1017.1;;;3.2;67.2
54439;BME280;40347;53.848;27.498;2023-01-27T07:06:05;1017.2;;;3.3;67
54439;BME280;40347;53.848;27.498;2023-01-27T07:11:14;1017.1;;;3.4;66.7
54439;BME280;40347;53.848;27.498;2023-01-27T07:16:26;1017.2;;;3.6;66.5
54439;BME280;40347;53.848;27.498;2023-01-27T07:21:04;1017.2;;;3.6;66.3
54439;BME280;40347;53.848;27.498;2023-01-27T07:26:04;1017.2;;;3.8;66.3
54439;BME280;40347;53.848;27.498;2023-01-27T07:31:04;1017.2;;;3.7;65.9
54439;BME280;40347;53.848;27.498;2023-01-27T07:36:04;1017.1;;;3.8;65.8
54439;BME280;40347;53.848;27.498;2023-01-27T07:41:05;1017.2;;;3.8;65.8
54439;BME280;40347;53.848;27.498;2023-01-27T07:46:04;1017.3;;;3.9;65.5
54439;BME280;40347;53.848;27.498;2023-01-27T07:51:16;1017.3;;;4;65.2
54439;BME280;40347;53.848;27.498;2023-01-27T07:56:27;1017.4;;;3.8;65.2
54439;BME280;40347;53.848;27.498;2023-01-27T08:01:05;1017.4;;;3.7;65.3
54439;BME280;40347;53.848;27.498;2023-01-27T08:06:05;1017.4;;;3.7;65.3
54439;BME280;40347;53.848;27.498;2023-01-27T08:11:26;1017.4;;;3.7;65.6
54439;BME280;40347;53.848;27.498;2023-01-27T08:16:15;1017.4;;;3.7;65.5
54439;BME280;40347;53.848;27.498;2023-01-27T08:21:15;1017.4;;;3.8;65.6
54439;BME280;40347;53.848;27.498;2023-01-27T08:26:27;1017.4;;;3.9;65.4
54439;BME280;40347;53.848;27.498;2023-01-27T08:31:20;1017.5;;;4.1;65.1
54439;BME280;40347;53.848;27.498;2023-01-27T08:36:15;1017.5;;;4.2;64.8
54439;BME280;40347;53.848;27.498;2023-01-27T08:41:05;1017.6;;;4.1;64.6
54439;BME280;40347;53.848;27.498;2023-01-27T08:46:16;1017.6;;;4.1;64.4
54439;BME280;40347;53.848;27.498;2023-01-27T08:51:26;1017.6;;;4.2;64.4
54439;BME280;40347;53.848;27.498;2023-01-27T08:56:24;1017.6;;;4.2;64.4
54439;BME280;40347;53.848;27.498;2023-01-27T09:01:05;1017.7;;;4.2;64.4
54439;BME280;40347;53.848;27.498;2023-01-27T09:06:06;1017.7;;;4.1;64.3
54439;BME280;40347;53.848;27.498;2023-01-27T09:11:08;1017.7;;;4.2;64.1
54439;BME280;40347;53.848;27.498;2023-01-27T09:16:14;1017.7;;;4.1;64.2
54439;BME280;40347;53.848;27.498;2023-01-27T09:21:16;1017.7;;;4.3;64.6
54439;BME280;40347;53.848;27.498;2023-01-27T09:26:05;1017.6;;;4.5;64.4
54439;BME280;40347;53.848;27.498;2023-01-27T09:31:05;1017.5;;;4.7;64.1
54439;BME280;40347;53.848;27.498;2023-01-27T09:36:22;1017.5;;;4.9;63.6
54439;BME280;40347;53.848;27.498;2023-01-27T09:41:09;1017.6;;;5;63.2
54439;BME280;40347;53.848;27.498;2023-01-27T09:46:16;1017.6;;;5;63.2
54439;BME280;40347;53.848;27.498;2023-01-27T09:51:06;1017.6;;;5.1;63.2
54439;BME280;40347;53.848;27.498;2023-01-27T09:56:06;1017.6;;;5.1;63.4
54439;BME280;40347;53.848;27.498;2023-01-27T10:01:16;1017.6;;;5.2;63
54439;BME280;40347;53.848;27.498;2023-01-27T10:06:09;1017.6;;;5.3;62.7
54439;BME280;40347;53.848;27.498;2023-01-27T10:11:09;1017.6;;;5.6;62.5
54439;BME280;40347;53.848;27.498;2023-01-27T10:16:32;1017.6;;;5.9;62
54439;BME280;40347;53.848;27.498;2023-01-27T10:21:15;1017.5;;;6.2;61
54439;BME280;40347;53.848;27.498;2023-01-27T10:26:07;1017.5;;;6.4;60.4
54439;BME280;40347;53.848;27.498;2023-01-27T10:31:35;1017.5;;;6.5;59.8
54439;BME280;40347;53.848;27.498;2023-01-27T10:36:19;1017.5;;;6.7;59.2
54439;BME280;40347;53.848;27.498;2023-01-27T10:41:39;1017.6;;;6.8;59
54439;BME280;40347;53.848;27.498;2023-01-27T10:46:27;1017.6;;;6.8;58.9
54439;BME280;40347;53.848;27.498;2023-01-27T10:51:15;1017.5;;;6.8;59
54439;BME280;40347;53.848;27.498;2023-01-27T10:56:29;1017.5;;;6.6;58.9
54439;BME280;40347;53.848;27.498;2023-01-27T11:01:13;1017.5;;;6.4;59.3
54439;BME280;40347;53.848;27.498;2023-01-27T11:06:27;1017.6;;;6.3;59.6
54439;BME280;40347;53.848;27.498;2023-01-27T11:11:16;1017.5;;;6.3;59.8
54439;BME280;40347;53.848;27.498;2023-01-27T11:16:05;1017.5;;;6.3;59.8
54439;BME280;40347;53.848;27.498;2023-01-27T11:21:27;1017.5;;;6.3;59.4
54439;BME280;40347;53.848;27.498;2023-01-27T11:26:18;1017.5;;;6.2;59.3
54439;BME280;40347;53.848;27.498;2023-01-27T11:31:06;1017.5;;;6;59.5
54439;BME280;40347;53.848;27.498;2023-01-27T11:36:12;1017.5;;;6;59.5
54439;BME280;40347;53.848;27.498;2023-01-27T11:41:14;1017.5;;;5.8;59.7
54439;BME280;40347;53.848;27.498;2023-01-27T11:46:16;1017.5;;;5.6;60.4
54439;BME280;40347;53.848;27.498;2023-01-27T11:51:07;1017.5;;;5.4;60.6
54439;BME280;40347;53.848;27.498;2023-01-27T11:56:05;1017.6;;;5.2;61
54439;BME280;40347;53.848;27.498;2023-01-27T12:01:05;1017.5;;;5;61.5
54439;BME280;40347;53.848;27.498;2023-01-27T12:06:10;1017.6;;;4.9;61.8
54439;BME280;40347;53.848;27.498;2023-01-27T12:11:21;1017.6;;;4.8;62.1
54439;BME280;40347;53.848;27.498;2023-01-27T12:16:16;1017.5;;;4.7;62.6
54439;BME280;40347;53.848;27.498;2023-01-27T12:21:14;1017.5;;;4.7;62.8
54439;BME280;40347;53.848;27.498;2023-01-27T12:26:27;1017.6;;;4.8;62.9
54439;BME280;40347;53.848;27.498;2023-01-27T12:31:15;1017.7;;;4.9;62.8
54439;BME280;40347;53.848;27.498;2023-01-27T12:36:13;1017.7;;;5;62.5
54439;BME280;40347;53.848;27.498;2023-01-27T12:41:05;1017.8;;;5;62.1
54439;BME280;40347;53.848;27.498;2023-01-27T12:46:07;1017.8;;;5;62.2
54439;BME280;40347;53.848;27.498;2023-01-27T12:51:05;1017.7;;;5;62.3
54439;BME280;40347;53.848;27.498;2023-01-27T12:56:26;1017.7;;;5.2;62.3
54439;BME280;40347;53.848;27.498;2023-01-27T13:01:06;1017.8;;;5.3;62.1
54439;BME280;40347;53.848;27.498;2023-01-27T13:06:04;1017.9;;;5.4;61.9
54439;BME280;40347;53.848;27.498;2023-01-27T13:11:28;1017.9;;;5.4;61.7
54439;BME280;40347;53.848;27.498;2023-01-27T13:16:05;1018;;;5.4;61.7
54439;BME280;40347;53.848;27.498;2023-01-27T13:21:09;1018;;;5.3;61.8
54439;BME280;40347;53.848;27.498;2023-01-27T13:26:27;1017.9;;;5.4;61.9
54439;BME280;40347;53.848;27.498;2023-01-27T13:31:30;1017.9;;;5.4;61.9
54439;BME280;40347;53.848;27.498;2023-01-27T13:36:20;1018;;;5.4;61.8
54439;BME280;40347;53.848;27.498;2023-01-27T13:41:05;1018.1;;;5.3;61.7
54439;BME280;40347;53.848;27.498;2023-01-27T13:46:05;1018.1;;;5.3;62
54439;BME280;40347;53.848;27.498;2023-01-27T13:51:05;1018.2;;;5.2;62.1
54439;BME280;40347;53.848;27.498;2023-01-27T13:56:06;1018.2;;;5.2;62
54439;BME280;40347;53.848;27.498;2023-01-27T14:01:07;1018.2;;;5.2;62
54439;BME280;40347;53.848;27.498;2023-01-27T14:06:17;1018.2;;;5.1;61.9
54439;BME280;40347;53.848;27.498;2023-01-27T14:11:27;1018.2;;;5;61.8
54439;BME280;40347;53.848;27.498;2023-01-27T14:16:06;1018.2;;;4.9;61.8
54439;BME280;40347;53.848;27.498;2023-01-27T14:21:16;1018.2;;;4.7;62.1
54439;BME280;40347;53.848;27.498;2023-01-27T14:26:18;1018.2;;;4.7;62.1
54439;BME280;40347;53.848;27.498;2023-01-27T14:31:05;1018.3;;;4.5;62.7
54439;BME280;40347;53.848;27.498;2023-01-27T14:36:08;1018.4;;;4.4;62.9
54439;BME280;40347;53.848;27.498;2023-01-27T14:41:18;1018.4;;;4.4;63.2
54439;BME280;40347;53.848;27.498;2023-01-27T14:46:17;1018.4;;;4.4;63.3
54439;BME280;40347;53.848;27.498;2023-01-27T14:51:30;1018.3;;;4.4;63.5
54439;BME280;40347;53.848;27.498;2023-01-27T14:56:06;1018.4;;;4.3;63.5
54439;BME280;40347;53.848;27.498;2023-01-27T15:01:17;1018.4;;;4.3;63.6
54439;BME280;40347;53.848;27.498;2023-01-27T15:06:28;1018.4;;;4.2;63.6
54439;BME280;40347;53.848;27.498;2023-01-27T15:11:26;1018.5;;;4.2;63.6
54439;BME280;40347;53.848;27.498;2023-01-27T15:16:17;1018.5;;;4.1;63.6
54439;BME280;40347;53.848;27.498;2023-01-27T15:21:09;1018.5;;;3.8;63.8
54439;BME280;40347;53.848;27.498;2023-01-27T15:26:18;1018.5;;;3.6;64.4
54439;BME280;40347;53.848;27.498;2023-01-27T15:31:24;1018.5;;;3.4;65.3
54439;BME280;40347;53.848;27.498;2023-01-27T15:36:29;1018.5;;;3.3;65.8
54439;BME280;40347;53.848;27.498;2023-01-27T15:41:06;1018.5;;;3.3;66
54439;BME280;40347;53.848;27.498;2023-01-27T15:46:16;1018.6;;;3.3;66.5
54439;BME280;40347;53.848;27.498;2023-01-27T15:51:15;1018.6;;;3.2;66.3
54439;BME280;40347;53.848;27.498;2023-01-27T15:56:05;1018.7;;;3.2;66.4
54439;BME280;40347;53.848;27.498;2023-01-27T16:01:06;1018.8;;;3.3;66.5
54439;BME280;40347;53.848;27.498;2023-01-27T16:06:13;1018.9;;;3.4;66.4
54439;BME280;40347;53.848;27.498;2023-01-27T16:11:20;1018.9;;;3.4;66.3
54439;BME280;40347;53.848;27.498;2023-01-27T16:16:31;1018.9;;;3.4;66.3
54439;BME280;40347;53.848;27.498;2023-01-27T16:21:04;1019;;;3.4;66.4
54439;BME280;40347;53.848;27.498;2023-01-27T16:26:19;1019;;;3.4;66.5
54439;BME280;40347;53.848;27.498;2023-01-27T16:31:15;1019;;;3.5;66.5
54439;BME280;40347;53.848;27.498;2023-01-27T16:36:25;1019.1;;;3.5;66.5
54439;BME280;40347;53.848;27.498;2023-01-27T16:41:17;1019.1;;;3.6;66.5
54439;BME280;40347;53.848;27.498;2023-01-27T16:46:05;1019.1;;;3.6;66.3
54439;BME280;40347;53.848;27.498;2023-01-27T16:51:06;1019.1;;;3.6;66.2
54439;BME280;40347;53.848;27.498;2023-01-27T16:56:05;1019.1;;;3.5;66.3
54439;BME280;40347;53.848;27.498;2023-01-27T17:01:47;1019.1;;;3.6;66.4
54439;BME280;40347;53.848;27.498;2023-01-27T17:06:05;1019.1;;;3.6;66.6
54439;BME280;40347;53.848;27.498;2023-01-27T17:11:16;1019.2;;;3.6;66.5
54439;BME280;40347;53.848;27.498;2023-01-27T17:16:05;1019.2;;;3.6;66.5
54439;BME280;40347;53.848;27.498;2023-01-27T17:21:51;1019.2;;;3.6;66.6
54439;BME280;40347;53.848;27.498;2023-01-27T17:26:38;1019.2;;;3.7;66.5
54439;BME280;40347;53.848;27.498;2023-01-27T17:31:15;1019.3;;;3.7;66.4
54439;BME280;40347;53.848;27.498;2023-01-27T17:36:26;1019.3;;;3.7;66.3
54439;BME280;40347;53.848;27.498;2023-01-27T17:41:23;1019.3;;;3.6;66.3
54439;BME280;40347;53.848;27.498;2023-01-27T17:46:15;1019.4;;;3.6;66.4
54439;BME280;40347;53.848;27.498;2023-01-27T17:51:17;1019.4;;;3.6;66.5
54439;BME280;40347;53.848;27.498;2023-01-27T17:56:18;1019.4;;;3.7;66.7
54439;BME280;40347;53.848;27.498;2023-01-27T18:01:04;1019.4;;;3.8;66.4
54439;BME280;40347;53.848;27.498;2023-01-27T18:06:14;1019.5;;;3.8;66.2
54439;BME280;40347;53.848;27.498;2023-01-27T18:11:20;1019.5;;;3.6;66.1
54439;BME280;40347;53.848;27.498;2023-01-27T18:16:11;1019.4;;;3.3;66.8
54439;BME280;40347;53.848;27.498;2023-01-27T18:21:05;1019.4;;;3.2;67.3
54439;BME280;40347;53.848;27.498;2023-01-27T18:26:25;1019.3;;;3.2;67.8
54439;BME280;40347;53.848;27.498;2023-01-27T18:31:27;1019.3;;;3.2;67.9
54439;BME280;40347;53.848;27.498;2023-01-27T18:36:05;1019.3;;;3.2;67.8
54439;BME280;40347;53.848;27.498;2023-01-27T18:41:07;1019.4;;;3.2;67.7
54439;BME280;40347;53.848;27.498;2023-01-27T18:46:17;1019.4;;;3.2;67.5
54439;BME280;40347;53.848;27.498;2023-01-27T18:51:16;1019.4;;;3.3;67.4
54439;BME280;40347;53.848;27.498;2023-01-27T18:56:26;1019.4;;;3.3;67.4
54439;BME280;40347;53.848;27.498;2023-01-27T19:01:13;1019.4;;;3.2;66.9
54439;BME280;40347;53.848;27.498;2023-01-27T19:06:15;1019.4;;;3.1;67
54439;BME280;40347;53.848;27.498;2023-01-27T19:11:04;1019.4;;;3;67.2
54439;BME280;40347;53.848;27.498;2023-01-27T19:16:07;1019.5;;;2.7;67.7
54439;BME280;40347;53.848;27.498;2023-01-27T19:21:05;1019.6;;;2.6;68.4
54439;BME280;40347;53.848;27.498;2023-01-27T19:26:26;1019.6;;;2.6;68.4
54439;BME280;40347;53.848;27.498;2023-01-27T19:31:15;1019.6;;;2.7;68.4
54439;BME280;40347;53.848;27.498;2023-01-27T19:36:27;1019.6;;;2.7;68.1
54439;BME280;40347;53.848;27.498;2023-01-27T19:41:26;1019.6;;;2.7;67.6
54439;BME280;40347;53.848;27.498;2023-01-27T19:46:05;1019.7;;;2.8;67.6
54439;BME280;40347;53.848;27.498;2023-01-27T19:51:16;1019.8;;;2.6;67.3
54439;BME280;40347;53.848;27.498;2023-01-27T19:56:09;1019.8;;;2.6;67.4
54439;BME280;40347;53.848;27.498;2023-01-27T20:01:04;1019.8;;;2.7;67.2
54439;BME280;40347;53.848;27.498;2023-01-27T20:06:15;1019.8;;;2.7;67.1
54439;BME280;40347;53.848;27.498;2023-01-27T20:11:22;1019.8;;;2.8;67.2
54439;BME280;40347;53.848;27.498;2023-01-27T20:16:28;1019.8;;;2.8;66.9
54439;BME280;40347;53.848;27.498;2023-01-27T20:21:14;1019.8;;;2.8;66.8
54439;BME280;40347;53.848;27.498;2023-01-27T20:26:05;1019.9;;;2.7;66.9
54439;BME280;40347;53.848;27.498;2023-01-27T20:31:26;1019.9;;;2.8;66.9
54439;BME280;40347;53.848;27.498;2023-01-27T20:36:05;1019.9;;;2.8;66.7
54439;BME280;40347;53.848;27.498;2023-01-27T20:41:15;1019.9;;;2.7;66
54439;BME280;40347;53.848;27.498;2023-01-27T20:46:05;1020.1;;;2.7;65.9
54439;BME280;40347;53.848;27.498;2023-01-27T20:51:15;1020.1;;;2.7;65.4
54439;BME280;40347;53.848;27.498;2023-01-27T20:56:05;1020.2;;;2.7;64.9
54439;BME280;40347;53.848;27.498;2023-01-27T21:01:05;1020.3;;;2.6;64.4
54439;BME280;40347;53.848;27.498;2023-01-27T21:06:05;1020.3;;;2.5;64
54439;BME280;40347;53.848;27.498;2023-01-27T21:11:05;1020.3;;;2.3;63.3
54439;BME280;40347;53.848;27.498;2023-01-27T21:16:05;1020.3;;;2.1;63.1
54439;BME280;40347;53.848;27.498;2023-01-27T21:21:19;1020.2;;;2.1;63.3
54439;BME280;40347;53.848;27.498;2023-01-27T21:26:05;1020.2;;;2.1;64.2
54439;BME280;40347;53.848;27.498;2023-01-27T21:31:05;1020.3;;;2.2;64.2
54439;BME280;40347;53.848;27.498;2023-01-27T21:36:05;1020.2;;;2.2;64
54439;BME280;40347;53.848;27.498;2023-01-27T21:41:28;1020.2;;;2.3;63.9
54439;BME280;40347;53.848;27.498;2023-01-27T21:46:26;1020.2;;;2.5;63.6
54439;BME280;40347;53.848;27.498;2023-01-27T21:51:14;1020.1;;;2.6;63.1
54439;BME280;40347;53.848;27.498;2023-01-27T21:56:05;1020;;;2.7;63
54439;BME280;40347;53.848;27.498;2023-01-27T22:01:15;1020;;;2.8;62.6
54439;BME280;40347;53.848;27.498;2023-01-27T22:06:26;1020;;;2.8;62.6
54439;BME280;40347;53.848;27.498;2023-01-27T22:11:14;1020;;;2.9;62.6
54439;BME280;40347;53.848;27.498;2023-01-27T22:16:26;1020;;;2.9;62.8
54439;BME280;40347;53.848;27.498;2023-01-27T22:21:04;1020;;;2.9;62.6
54439;BME280;40347;53.848;27.498;2023-01-27T22:26:05;1019.9;;;2.9;62.5
54439;BME280;40347;53.848;27.498;2023-01-27T22:31:22;1019.9;;;2.9;62.5
54439;BME280;40347;53.848;27.498;2023-01-27T22:36:05;1019.9;;;2.8;62.2
54439;BME280;40347;53.848;27.498;2023-01-27T22:41:16;1019.9;;;2.7;61.7
54439;BME280;40347;53.848;27.498;2023-01-27T22:46:04;1020;;;2.6;62.5
54439;BME280;40347;53.848;27.498;2023-01-27T22:51:05;1020;;;2.6;62.7
54439;BME280;40347;53.848;27.498;2023-01-27T22:56:14;1020;;;2.5;62.7
54439;BME280;40347;53.848;27.498;2023-01-27T23:01:13;1020.1;;;2.2;63.1
54439;BME280;40347;53.848;27.498;2023-01-27T23:06:36;1020;;;1.9;64.2
54439;BME280;40347;53.848;27.498;2023-01-27T23:11:26;1020;;;2;64.6
54439;BME280;40347;53.848;27.498;2023-01-27T23:16:05;1020;;;2.1;64.1
54439;BME280;40347;53.848;27.498;2023-01-27T23:21:17;1020;;;2.1;63.5
54439;BME280;40347;53.848;27.498;2023-01-27T23:26:24;1020;;;2;63.2
54439;BME280;40347;53.848;27.498;2023-01-27T23:31:28;1019.9;;;1.9;63.1
54439;BME280;40347;53.848;27.498;2023-01-27T23:36:14;1019.9;;;1.9;63.4
54439;BME280;40347;53.848;27.498;2023-01-27T23:41:14;1019.8;;;2;63.3
54439;BME280;40347;53.848;27.498;2023-01-27T23:46:14;1019.9;;;2.1;63.5
54439;BME280;40347;53.848;27.498;2023-01-27T23:51:05;1019.9;;;2.2;63.5
54439;BME280;40347;53.848;27.498;2023-01-27T23:56:05;1019.9;;;2.3;63.6
